Saint Marys City, Maryland
Current Conditions -  °F | °C
As of 9:53 PM on Sunday 23 Nov 2014 (Local Time) from KNUI Reporting Station
Overcast Overcast  
Wind Chill: 58°   Ceiling: 3900
Heat Index: 58°   Visibility: 10mi
Dew Point: 52°   Wind: 7mph
Humidity: 81%   Direction: 120°ESE
Pressure: 29.94"   Gusts: NA
Location:  38.19°N, 76.43°W
Report Text: KNUI 240253Z AUTO 12006KT 10SM BKN039 OVC048 14/11 A2994 RMK AO2 SLP136 60001 T01440111 58040
Loading
Personal Weather Stations






























Interactive Weather Map New forecast layout! Learn more

10-Day Weather Forecast

Advertisements
Track Severe Weather on mobile